sensor_id;sensor_type;location;lat;lon;timestamp;P1;durP1;ratioP1;P2;durP2;ratioP2
56343;SDS011;42245;42.058;24.700;2023-11-18T00:01:43;1.20;;;0.60;;
56343;SDS011;42245;42.058;24.700;2023-11-18T00:04:09;1.63;;;0.63;;
56343;SDS011;42245;42.058;24.700;2023-11-18T00:06:40;1.00;;;0.90;;
56343;SDS011;42245;42.058;24.700;2023-11-18T00:09:06;0.60;;;0.60;;
56343;SDS011;42245;42.058;24.700;2023-11-18T00:11:32;1.95;;;0.82;;
56343;SDS011;42245;42.058;24.700;2023-11-18T00:13:57;0.60;;;0.60;;
56343;SDS011;42245;42.058;24.700;2023-11-18T00:16:24;0.82;;;0.70;;
56343;SDS011;42245;42.058;24.700;2023-11-18T00:18:51;0.95;;;0.70;;
56343;SDS011;42245;42.058;24.700;2023-11-18T00:21:18;0.65;;;0.60;;
56343;SDS011;42245;42.058;24.700;2023-11-18T00:23:43;1.45;;;0.80;;
56343;SDS011;42245;42.058;24.700;2023-11-18T00:26:10;1.55;;;0.90;;
56343;SDS011;42245;42.058;24.700;2023-11-18T00:28:36;1.70;;;0.90;;
56343;SDS011;42245;42.058;24.700;2023-11-18T00:31:01;3.75;;;1.27;;
56343;SDS011;42245;42.058;24.700;2023-11-18T00:33:29;1.83;;;1.30;;
56343;SDS011;42245;42.058;24.700;2023-11-18T00:35:54;2.92;;;1.63;;
56343;SDS011;42245;42.058;24.700;2023-11-18T00:38:20;1.20;;;1.10;;
56343;SDS011;42245;42.058;24.700;2023-11-18T00:40:45;1.73;;;1.40;;
56343;SDS011;42245;42.058;24.700;2023-11-18T00:43:10;2.00;;;1.75;;
56343;SDS011;42245;42.058;24.700;2023-11-18T00:45:36;2.08;;;1.58;;
56343;SDS011;42245;42.058;24.700;2023-11-18T00:48:01;1.52;;;1.33;;
56343;SDS011;42245;42.058;24.700;2023-11-18T00:50:27;1.40;;;1.30;;
56343;SDS011;42245;42.058;24.700;2023-11-18T00:52:52;2.67;;;2.03;;
56343;SDS011;42245;42.058;24.700;2023-11-18T00:55:17;2.35;;;2.15;;
56343;SDS011;42245;42.058;24.700;2023-11-18T00:57:46;3.78;;;2.28;;
56343;SDS011;42245;42.058;24.700;2023-11-18T01:00:12;3.15;;;2.60;;
56343;SDS011;42245;42.058;24.700;2023-11-18T01:02:41;4.15;;;3.05;;
56343;SDS011;42245;42.058;24.700;2023-11-18T01:05:08;3.10;;;2.53;;
56343;SDS011;42245;42.058;24.700;2023-11-18T01:07:34;2.80;;;2.50;;
56343;SDS011;42245;42.058;24.700;2023-11-18T01:10:01;3.35;;;2.60;;
56343;SDS011;42245;42.058;24.700;2023-11-18T01:12:26;2.97;;;2.50;;
56343;SDS011;42245;42.058;24.700;2023-11-18T01:14:52;2.50;;;2.30;;
56343;SDS011;42245;42.058;24.700;2023-11-18T01:17:17;2.65;;;2.25;;
56343;SDS011;42245;42.058;24.700;2023-11-18T01:19:42;2.65;;;2.42;;
56343;SDS011;42245;42.058;24.700;2023-11-18T01:22:09;3.13;;;2.40;;
56343;SDS011;42245;42.058;24.700;2023-11-18T01:24:36;2.78;;;2.58;;
56343;SDS011;42245;42.058;24.700;2023-11-18T01:27:02;3.38;;;2.70;;
56343;SDS011;42245;42.058;24.700;2023-11-18T01:29:27;3.17;;;2.67;;
56343;SDS011;42245;42.058;24.700;2023-11-18T01:31:53;3.92;;;3.63;;
56343;SDS011;42245;42.058;24.700;2023-11-18T01:34:20;3.05;;;2.75;;
56343;SDS011;42245;42.058;24.700;2023-11-18T01:36:47;4.75;;;3.38;;
56343;SDS011;42245;42.058;24.700;2023-11-18T01:39:14;3.33;;;2.97;;
56343;SDS011;42245;42.058;24.700;2023-11-18T01:41:40;3.40;;;2.90;;
56343;SDS011;42245;42.058;24.700;2023-11-18T01:44:06;3.20;;;2.47;;
56343;SDS011;42245;42.058;24.700;2023-11-18T01:46:33;2.92;;;2.60;;
56343;SDS011;42245;42.058;24.700;2023-11-18T01:49:00;2.60;;;2.10;;
56343;SDS011;42245;42.058;24.700;2023-11-18T01:51:28;3.20;;;2.33;;
56343;SDS011;42245;42.058;24.700;2023-11-18T01:53:54;2.10;;;1.85;;
56343;SDS011;42245;42.058;24.700;2023-11-18T01:56:20;2.00;;;1.80;;
56343;SDS011;42245;42.058;24.700;2023-11-18T01:58:46;1.90;;;1.60;;
56343;SDS011;42245;42.058;24.700;2023-11-18T02:01:11;1.70;;;1.60;;
56343;SDS011;42245;42.058;24.700;2023-11-18T02:03:41;1.40;;;1.30;;
56343;SDS011;42245;42.058;24.700;2023-11-18T02:06:07;4.07;;;1.45;;
56343;SDS011;42245;42.058;24.700;2023-11-18T02:08:35;1.15;;;1.05;;
56343;SDS011;42245;42.058;24.700;2023-11-18T02:11:03;2.67;;;1.00;;
56343;SDS011;42245;42.058;24.700;2023-11-18T02:13:36;1.20;;;1.00;;
56343;SDS011;42245;42.058;24.700;2023-11-18T02:16:04;1.00;;;1.00;;
56343;SDS011;42245;42.058;24.700;2023-11-18T02:18:30;0.85;;;0.85;;
56343;SDS011;42245;42.058;24.700;2023-11-18T02:20:55;0.90;;;0.90;;
56343;SDS011;42245;42.058;24.700;2023-11-18T02:23:27;0.97;;;0.90;;
56343;SDS011;42245;42.058;24.700;2023-11-18T02:25:53;0.70;;;0.70;;
56343;SDS011;42245;42.058;24.700;2023-11-18T02:28:18;0.85;;;0.70;;
56343;SDS011;42245;42.058;24.700;2023-11-18T02:30:44;0.80;;;0.80;;
56343;SDS011;42245;42.058;24.700;2023-11-18T02:33:22;0.73;;;0.70;;
56343;SDS011;42245;42.058;24.700;2023-11-18T02:36:14;2.13;;;0.73;;
56343;SDS011;42245;42.058;24.700;2023-11-18T02:38:47;0.70;;;0.70;;
56343;SDS011;42245;42.058;24.700;2023-11-18T02:41:15;0.70;;;0.70;;
56343;SDS011;42245;42.058;24.700;2023-11-18T02:43:43;0.75;;;0.70;;
56343;SDS011;42245;42.058;24.700;2023-11-18T02:46:10;0.80;;;0.80;;
56343;SDS011;42245;42.058;24.700;2023-11-18T02:48:37;0.57;;;0.57;;
56343;SDS011;42245;42.058;24.700;2023-11-18T02:51:04;1.43;;;0.70;;
56343;SDS011;42245;42.058;24.700;2023-11-18T02:53:29;0.80;;;0.60;;
56343;SDS011;42245;42.058;24.700;2023-11-18T02:55:55;0.73;;;0.70;;
56343;SDS011;42245;42.058;24.700;2023-11-18T02:58:30;2.10;;;1.00;;
56343;SDS011;42245;42.058;24.700;2023-11-18T03:00:56;1.70;;;0.67;;
56343;SDS011;42245;42.058;24.700;2023-11-18T03:03:24;1.83;;;0.80;;
56343;SDS011;42245;42.058;24.700;2023-11-18T03:05:50;0.70;;;0.60;;
56343;SDS011;42245;42.058;24.700;2023-11-18T03:08:16;1.17;;;1.07;;
56343;SDS011;42245;42.058;24.700;2023-11-18T03:10:41;2.20;;;0.85;;
56343;SDS011;42245;42.058;24.700;2023-11-18T03:13:09;1.27;;;1.00;;
56343;SDS011;42245;42.058;24.700;2023-11-18T03:15:35;0.83;;;0.73;;
56343;SDS011;42245;42.058;24.700;2023-11-18T03:18:00;0.80;;;0.80;;
56343;SDS011;42245;42.058;24.700;2023-11-18T03:20:26;1.47;;;0.80;;
56343;SDS011;42245;42.058;24.700;2023-11-18T03:22:51;0.70;;;0.63;;
56343;SDS011;42245;42.058;24.700;2023-11-18T03:25:17;2.30;;;0.90;;
56343;SDS011;42245;42.058;24.700;2023-11-18T03:27:44;2.17;;;1.10;;
56343;SDS011;42245;42.058;24.700;2023-11-18T03:30:10;1.83;;;1.73;;
56343;SDS011;42245;42.058;24.700;2023-11-18T03:32:36;1.33;;;1.23;;
56343;SDS011;42245;42.058;24.700;2023-11-18T03:35:02;0.90;;;0.80;;
56343;SDS011;42245;42.058;24.700;2023-11-18T03:37:32;1.10;;;1.00;;
56343;SDS011;42245;42.058;24.700;2023-11-18T03:39:57;1.27;;;0.93;;
56343;SDS011;42245;42.058;24.700;2023-11-18T03:42:23;0.90;;;0.90;;
56343;SDS011;42245;42.058;24.700;2023-11-18T03:44:48;0.80;;;0.80;;
56343;SDS011;42245;42.058;24.700;2023-11-18T03:47:15;0.90;;;0.90;;
56343;SDS011;42245;42.058;24.700;2023-11-18T03:49:40;1.20;;;1.10;;
56343;SDS011;42245;42.058;24.700;2023-11-18T03:52:06;0.70;;;0.70;;
56343;SDS011;42245;42.058;24.700;2023-11-18T03:54:32;0.80;;;0.80;;
56343;SDS011;42245;42.058;24.700;2023-11-18T03:56:57;1.17;;;0.70;;
56343;SDS011;42245;42.058;24.700;2023-11-18T03:59:22;0.80;;;0.80;;
56343;SDS011;42245;42.058;24.700;2023-11-18T04:01:48;0.73;;;0.73;;
56343;SDS011;42245;42.058;24.700;2023-11-18T04:04:16;3.47;;;0.90;;
56343;SDS011;42245;42.058;24.700;2023-11-18T04:06:42;0.70;;;0.70;;
56343;SDS011;42245;42.058;24.700;2023-11-18T04:09:07;2.83;;;0.70;;
56343;SDS011;42245;42.058;24.700;2023-11-18T04:11:34;1.20;;;0.80;;
56343;SDS011;42245;42.058;24.700;2023-11-18T04:14:00;0.83;;;0.83;;
56343;SDS011;42245;42.058;24.700;2023-11-18T04:16:25;0.70;;;0.70;;
56343;SDS011;42245;42.058;24.700;2023-11-18T04:18:51;0.90;;;0.90;;
56343;SDS011;42245;42.058;24.700;2023-11-18T04:21:16;1.13;;;0.93;;
56343;SDS011;42245;42.058;24.700;2023-11-18T04:23:42;1.00;;;0.83;;
56343;SDS011;42245;42.058;24.700;2023-11-18T04:26:08;1.00;;;0.90;;
56343;SDS011;42245;42.058;24.700;2023-11-18T04:28:34;1.00;;;0.93;;
56343;SDS011;42245;42.058;24.700;2023-11-18T04:31:00;0.97;;;0.90;;
56343;SDS011;42245;42.058;24.700;2023-11-18T04:33:26;2.03;;;0.90;;
56343;SDS011;42245;42.058;24.700;2023-11-18T04:35:51;0.67;;;0.67;;
56343;SDS011;42245;42.058;24.700;2023-11-18T04:38:17;0.80;;;0.80;;
56343;SDS011;42245;42.058;24.700;2023-11-18T04:40:43;0.80;;;0.80;;
56343;SDS011;42245;42.058;24.700;2023-11-18T04:43:11;0.90;;;0.90;;
56343;SDS011;42245;42.058;24.700;2023-11-18T04:45:37;1.67;;;1.00;;
56343;SDS011;42245;42.058;24.700;2023-11-18T04:48:03;1.00;;;1.00;;
56343;SDS011;42245;42.058;24.700;2023-11-18T04:50:29;1.10;;;1.00;;
56343;SDS011;42245;42.058;24.700;2023-11-18T04:52:55;1.30;;;0.90;;
56343;SDS011;42245;42.058;24.700;2023-11-18T04:55:23;1.30;;;1.00;;
56343;SDS011;42245;42.058;24.700;2023-11-18T04:57:51;1.00;;;1.00;;
56343;SDS011;42245;42.058;24.700;2023-11-18T05:00:16;1.10;;;1.00;;
56343;SDS011;42245;42.058;24.700;2023-11-18T05:02:43;1.40;;;1.30;;
56343;SDS011;42245;42.058;24.700;2023-11-18T05:05:12;1.17;;;1.07;;
56343;SDS011;42245;42.058;24.700;2023-11-18T05:07:39;1.40;;;1.30;;
56343;SDS011;42245;42.058;24.700;2023-11-18T05:10:05;1.60;;;1.30;;
56343;SDS011;42245;42.058;24.700;2023-11-18T05:12:33;1.30;;;1.20;;
56343;SDS011;42245;42.058;24.700;2023-11-18T05:14:59;1.40;;;1.30;;
56343;SDS011;42245;42.058;24.700;2023-11-18T05:17:24;1.20;;;1.10;;
56343;SDS011;42245;42.058;24.700;2023-11-18T05:19:51;1.97;;;1.60;;
56343;SDS011;42245;42.058;24.700;2023-11-18T05:22:16;1.70;;;1.60;;
56343;SDS011;42245;42.058;24.700;2023-11-18T05:24:43;1.70;;;1.60;;
56343;SDS011;42245;42.058;24.700;2023-11-18T05:27:08;1.83;;;1.70;;
56343;SDS011;42245;42.058;24.700;2023-11-18T05:29:34;1.80;;;1.70;;
56343;SDS011;42245;42.058;24.700;2023-11-18T05:31:59;2.17;;;1.97;;
56343;SDS011;42245;42.058;24.700;2023-11-18T05:34:24;2.23;;;2.03;;
56343;SDS011;42245;42.058;24.700;2023-11-18T05:36:50;2.30;;;2.10;;
56343;SDS011;42245;42.058;24.700;2023-11-18T05:39:22;2.33;;;2.13;;
56343;SDS011;42245;42.058;24.700;2023-11-18T05:41:49;2.87;;;2.20;;
56343;SDS011;42245;42.058;24.700;2023-11-18T05:44:16;4.73;;;2.30;;
56343;SDS011;42245;42.058;24.700;2023-11-18T05:46:46;2.23;;;2.03;;
56343;SDS011;42245;42.058;24.700;2023-11-18T05:49:12;2.80;;;2.20;;
56343;SDS011;42245;42.058;24.700;2023-11-18T05:51:38;2.40;;;2.20;;
56343;SDS011;42245;42.058;24.700;2023-11-18T05:54:05;2.77;;;2.37;;
56343;SDS011;42245;42.058;24.700;2023-11-18T05:56:31;2.53;;;2.33;;
56343;SDS011;42245;42.058;24.700;2023-11-18T05:58:58;2.67;;;2.30;;
56343;SDS011;42245;42.058;24.700;2023-11-18T06:01:24;2.60;;;2.40;;
56343;SDS011;42245;42.058;24.700;2023-11-18T06:03:52;2.60;;;2.37;;
56343;SDS011;42245;42.058;24.700;2023-11-18T06:06:17;2.90;;;2.40;;
56343;SDS011;42245;42.058;24.700;2023-11-18T06:08:43;4.53;;;3.30;;
56343;SDS011;42245;42.058;24.700;2023-11-18T06:13:47;2.40;;;2.20;;
56343;SDS011;42245;42.058;24.700;2023-11-18T06:16:18;3.03;;;2.50;;
56343;SDS011;42245;42.058;24.700;2023-11-18T06:18:57;4.70;;;2.77;;
56343;SDS011;42245;42.058;24.700;2023-11-18T06:21:24;3.93;;;2.97;;
56343;SDS011;42245;42.058;24.700;2023-11-18T06:23:53;4.33;;;2.90;;
56343;SDS011;42245;42.058;24.700;2023-11-18T06:26:19;3.40;;;3.00;;
56343;SDS011;42245;42.058;24.700;2023-11-18T06:28:45;3.57;;;3.13;;
56343;SDS011;42245;42.058;24.700;2023-11-18T06:31:11;2.90;;;2.60;;
56343;SDS011;42245;42.058;24.700;2023-11-18T06:33:46;3.63;;;3.00;;
56343;SDS011;42245;42.058;24.700;2023-11-18T06:38:42;3.23;;;2.87;;
56343;SDS011;42245;42.058;24.700;2023-11-18T06:41:09;2.90;;;2.60;;
56343;SDS011;42245;42.058;24.700;2023-11-18T06:43:37;3.50;;;3.03;;
56343;SDS011;42245;42.058;24.700;2023-11-18T06:46:21;3.23;;;2.63;;
56343;SDS011;42245;42.058;24.700;2023-11-18T06:48:56;3.07;;;2.57;;
56343;SDS011;42245;42.058;24.700;2023-11-18T06:51:23;3.43;;;2.60;;
56343;SDS011;42245;42.058;24.700;2023-11-18T06:53:52;3.47;;;3.00;;
56343;SDS011;42245;42.058;24.700;2023-11-18T06:56:25;3.20;;;2.90;;
56343;SDS011;42245;42.058;24.700;2023-11-18T06:58:51;3.67;;;3.20;;
56343;SDS011;42245;42.058;24.700;2023-11-18T07:01:16;3.03;;;2.73;;
56343;SDS011;42245;42.058;24.700;2023-11-18T07:03:43;3.30;;;2.77;;
56343;SDS011;42245;42.058;24.700;2023-11-18T07:06:09;2.93;;;2.63;;
56343;SDS011;42245;42.058;24.700;2023-11-18T07:08:35;3.00;;;2.70;;
56343;SDS011;42245;42.058;24.700;2023-11-18T07:11:01;3.07;;;2.70;;
56343;SDS011;42245;42.058;24.700;2023-11-18T07:13:27;3.77;;;2.30;;
56343;SDS011;42245;42.058;24.700;2023-11-18T07:15:53;2.50;;;2.30;;
56343;SDS011;42245;42.058;24.700;2023-11-18T07:18:25;2.30;;;2.10;;
56343;SDS011;42245;42.058;24.700;2023-11-18T07:20:51;2.40;;;2.20;;
56343;SDS011;42245;42.058;24.700;2023-11-18T07:23:18;2.58;;;2.38;;
56343;SDS011;42245;42.058;24.700;2023-11-18T07:25:44;2.00;;;1.90;;
56343;SDS011;42245;42.058;24.700;2023-11-18T07:28:13;1.80;;;1.70;;
56343;SDS011;42245;42.058;24.700;2023-11-18T07:30:42;2.80;;;2.10;;
56343;SDS011;42245;42.058;24.700;2023-11-18T07:33:12;2.90;;;2.20;;
56343;SDS011;42245;42.058;24.700;2023-11-18T07:35:45;3.63;;;2.40;;
56343;SDS011;42245;42.058;24.700;2023-11-18T07:38:11;2.33;;;2.00;;
56343;SDS011;42245;42.058;24.700;2023-11-18T07:40:37;2.10;;;1.70;;
56343;SDS011;42245;42.058;24.700;2023-11-18T07:43:07;2.17;;;1.70;;
56343;SDS011;42245;42.058;24.700;2023-11-18T07:45:36;1.97;;;1.80;;
56343;SDS011;42245;42.058;24.700;2023-11-18T07:48:08;3.60;;;1.73;;
56343;SDS011;42245;42.058;24.700;2023-11-18T07:50:36;3.30;;;1.70;;
56343;SDS011;42245;42.058;24.700;2023-11-18T07:53:03;1.47;;;1.37;;
56343;SDS011;42245;42.058;24.700;2023-11-18T07:55:31;1.70;;;1.60;;
56343;SDS011;42245;42.058;24.700;2023-11-18T07:57:59;1.70;;;1.53;;
56343;SDS011;42245;42.058;24.700;2023-11-18T08:00:26;2.50;;;1.00;;
56343;SDS011;42245;42.058;24.700;2023-11-18T08:02:55;1.57;;;1.47;;
56343;SDS011;42245;42.058;24.700;2023-11-18T08:05:21;1.70;;;1.30;;
56343;SDS011;42245;42.058;24.700;2023-11-18T08:07:48;1.40;;;1.30;;
56343;SDS011;42245;42.058;24.700;2023-11-18T08:10:14;1.97;;;1.57;;
56343;SDS011;42245;42.058;24.700;2023-11-18T08:12:43;2.07;;;1.20;;
56343;SDS011;42245;42.058;24.700;2023-11-18T08:15:09;1.47;;;1.23;;
56343;SDS011;42245;42.058;24.700;2023-11-18T08:17:35;2.50;;;1.20;;
56343;SDS011;42245;42.058;24.700;2023-11-18T08:20:01;1.37;;;1.00;;
56343;SDS011;42245;42.058;24.700;2023-11-18T08:22:32;2.40;;;1.30;;
56343;SDS011;42245;42.058;24.700;2023-11-18T08:24:57;1.37;;;1.27;;
56343;SDS011;42245;42.058;24.700;2023-11-18T08:27:24;1.30;;;1.10;;
56343;SDS011;42245;42.058;24.700;2023-11-18T08:29:49;4.03;;;1.20;;
56343;SDS011;42245;42.058;24.700;2023-11-18T08:32:15;1.80;;;1.10;;
56343;SDS011;42245;42.058;24.700;2023-11-18T08:34:40;1.80;;;1.50;;
56343;SDS011;42245;42.058;24.700;2023-11-18T08:37:06;1.13;;;1.03;;
56343;SDS011;42245;42.058;24.700;2023-11-18T08:39:32;2.53;;;1.10;;
56343;SDS011;42245;42.058;24.700;2023-11-18T08:41:57;9.87;;;1.30;;
56343;SDS011;42245;42.058;24.700;2023-11-18T08:44:23;1.33;;;1.00;;
56343;SDS011;42245;42.058;24.700;2023-11-18T08:46:52;1.23;;;1.00;;
56343;SDS011;42245;42.058;24.700;2023-11-18T08:49:20;1.47;;;1.10;;
56343;SDS011;42245;42.058;24.700;2023-11-18T08:51:48;1.40;;;1.07;;
56343;SDS011;42245;42.058;24.700;2023-11-18T08:54:20;1.20;;;1.10;;
56343;SDS011;42245;42.058;24.700;2023-11-18T08:56:51;1.03;;;0.93;;
56343;SDS011;42245;42.058;24.700;2023-11-18T08:59:20;1.60;;;1.00;;
56343;SDS011;42245;42.058;24.700;2023-11-18T09:01:52;1.20;;;1.10;;
56343;SDS011;42245;42.058;24.700;2023-11-18T09:04:21;1.13;;;0.90;;
56343;SDS011;42245;42.058;24.700;2023-11-18T09:06:48;2.17;;;1.00;;
56343;SDS011;42245;42.058;24.700;2023-11-18T09:09:13;0.80;;;0.80;;
56343;SDS011;42245;42.058;24.700;2023-11-18T09:11:40;1.80;;;0.90;;
56343;SDS011;42245;42.058;24.700;2023-11-18T09:14:07;2.67;;;0.90;;
56343;SDS011;42245;42.058;24.700;2023-11-18T09:16:33;1.30;;;0.90;;
56343;SDS011;42245;42.058;24.700;2023-11-18T09:19:04;2.67;;;0.90;;
56343;SDS011;42245;42.058;24.700;2023-11-18T09:21:31;1.30;;;1.00;;
56343;SDS011;42245;42.058;24.700;2023-11-18T09:24:00;0.87;;;0.80;;
56343;SDS011;42245;42.058;24.700;2023-11-18T09:26:27;3.67;;;0.70;;
56343;SDS011;42245;42.058;24.700;2023-11-18T09:28:55;1.00;;;0.80;;
56343;SDS011;42245;42.058;24.700;2023-11-18T09:31:20;0.97;;;0.80;;
56343;SDS011;42245;42.058;24.700;2023-11-18T09:33:46;0.83;;;0.83;;
56343;SDS011;42245;42.058;24.700;2023-11-18T09:36:18;1.20;;;0.77;;
56343;SDS011;42245;42.058;24.700;2023-11-18T09:38:44;1.10;;;1.00;;
56343;SDS011;42245;42.058;24.700;2023-11-18T09:41:11;1.50;;;1.00;;
56343;SDS011;42245;42.058;24.700;2023-11-18T09:43:38;1.77;;;0.90;;
56343;SDS011;42245;42.058;24.700;2023-11-18T09:48:52;0.93;;;0.83;;
56343;SDS011;42245;42.058;24.700;2023-11-18T09:51:25;0.80;;;0.80;;
56343;SDS011;42245;42.058;24.700;2023-11-18T09:53:55;0.93;;;0.90;;
56343;SDS011;42245;42.058;24.700;2023-11-18T09:56:35;1.77;;;0.70;;
56343;SDS011;42245;42.058;24.700;2023-11-18T09:59:11;0.80;;;0.80;;
56343;SDS011;42245;42.058;24.700;2023-11-18T10:01:42;1.33;;;0.80;;
56343;SDS011;42245;42.058;24.700;2023-11-18T10:04:09;5.30;;;1.27;;
56343;SDS011;42245;42.058;24.700;2023-11-18T10:06:36;4.33;;;0.80;;
56343;SDS011;42245;42.058;24.700;2023-11-18T10:09:03;2.00;;;1.00;;
56343;SDS011;42245;42.058;24.700;2023-11-18T10:11:44;1.57;;;1.10;;
56343;SDS011;42245;42.058;24.700;2023-11-18T10:14:15;1.20;;;0.83;;
56343;SDS011;42245;42.058;24.700;2023-11-18T10:16:41;2.37;;;0.83;;
56343;SDS011;42245;42.058;24.700;2023-11-18T10:19:11;1.67;;;0.97;;
56343;SDS011;42245;42.058;24.700;2023-11-18T10:21:37;1.33;;;0.90;;
56343;SDS011;42245;42.058;24.700;2023-11-18T10:24:06;2.23;;;0.90;;
56343;SDS011;42245;42.058;24.700;2023-11-18T10:26:44;1.47;;;0.93;;
56343;SDS011;42245;42.058;24.700;2023-11-18T10:29:11;5.72;;;1.08;;
56343;SDS011;42245;42.058;24.700;2023-11-18T10:31:39;1.73;;;0.80;;
56343;SDS011;42245;42.058;24.700;2023-11-18T10:34:10;0.73;;;0.67;;
56343;SDS011;42245;42.058;24.700;2023-11-18T10:36:37;1.83;;;1.00;;
56343;SDS011;42245;42.058;24.700;2023-11-18T10:39:03;1.17;;;1.00;;
56343;SDS011;42245;42.058;24.700;2023-11-18T10:41:42;1.00;;;0.90;;
56343;SDS011;42245;42.058;24.700;2023-11-18T10:44:08;1.93;;;0.80;;
56343;SDS011;42245;42.058;24.700;2023-11-18T10:46:38;3.30;;;0.77;;
56343;SDS011;42245;42.058;24.700;2023-11-18T10:49:05;1.07;;;0.90;;
56343;SDS011;42245;42.058;24.700;2023-11-18T10:51:35;1.60;;;0.80;;
56343;SDS011;42245;42.058;24.700;2023-11-18T10:54:00;1.00;;;0.70;;
56343;SDS011;42245;42.058;24.700;2023-11-18T10:56:29;2.13;;;0.80;;
56343;SDS011;42245;42.058;24.700;2023-11-18T10:58:58;2.00;;;0.80;;
56343;SDS011;42245;42.058;24.700;2023-11-18T11:01:32;1.67;;;0.93;;
56343;SDS011;42245;42.058;24.700;2023-11-18T11:03:59;1.87;;;1.00;;
56343;SDS011;42245;42.058;24.700;2023-11-18T11:06:29;0.70;;;0.70;;
56343;SDS011;42245;42.058;24.700;2023-11-18T11:08:55;0.87;;;0.80;;
56343;SDS011;42245;42.058;24.700;2023-11-18T11:11:24;2.13;;;1.03;;
56343;SDS011;42245;42.058;24.700;2023-11-18T11:13:56;0.80;;;0.80;;
56343;SDS011;42245;42.058;24.700;2023-11-18T11:16:23;0.80;;;0.80;;
56343;SDS011;42245;42.058;24.700;2023-11-18T11:18:55;1.63;;;0.80;;
56343;SDS011;42245;42.058;24.700;2023-11-18T11:21:24;1.70;;;1.13;;
56343;SDS011;42245;42.058;24.700;2023-11-18T11:23:55;5.63;;;1.10;;
56343;SDS011;42245;42.058;24.700;2023-11-18T11:26:28;1.40;;;0.80;;
56343;SDS011;42245;42.058;24.700;2023-11-18T11:31:48;3.30;;;0.80;;
56343;SDS011;42245;42.058;24.700;2023-11-18T11:34:19;3.15;;;1.10;;
56343;SDS011;42245;42.058;24.700;2023-11-18T11:36:50;1.33;;;0.93;;
56343;SDS011;42245;42.058;24.700;2023-11-18T11:39:18;1.40;;;1.00;;
56343;SDS011;42245;42.058;24.700;2023-11-18T11:41:52;1.53;;;1.00;;
56343;SDS011;42245;42.058;24.700;2023-11-18T11:44:21;1.00;;;0.90;;
56343;SDS011;42245;42.058;24.700;2023-11-18T11:46:54;2.40;;;1.00;;
56343;SDS011;42245;42.058;24.700;2023-11-18T11:49:20;1.83;;;1.10;;
56343;SDS011;42245;42.058;24.700;2023-11-18T11:51:55;1.10;;;0.97;;
56343;SDS011;42245;42.058;24.700;2023-11-18T11:54:26;6.93;;;1.20;;
56343;SDS011;42245;42.058;24.700;2023-11-18T11:56:55;1.10;;;1.00;;
56343;SDS011;42245;42.058;24.700;2023-11-18T12:02:07;1.47;;;1.00;;
56343;SDS011;42245;42.058;24.700;2023-11-18T12:04:35;1.20;;;1.10;;
56343;SDS011;42245;42.058;24.700;2023-11-18T12:07:03;1.33;;;0.90;;
56343;SDS011;42245;42.058;24.700;2023-11-18T12:09:30;1.70;;;1.27;;
56343;SDS011;42245;42.058;24.700;2023-11-18T12:12:00;1.20;;;1.10;;
56343;SDS011;42245;42.058;24.700;2023-11-18T12:14:27;1.10;;;1.00;;
56343;SDS011;42245;42.058;24.700;2023-11-18T12:17:01;1.50;;;0.90;;
56343;SDS011;42245;42.058;24.700;2023-11-18T12:19:36;2.40;;;0.90;;
56343;SDS011;42245;42.058;24.700;2023-11-18T12:22:19;1.20;;;1.10;;
56343;SDS011;42245;42.058;24.700;2023-11-18T12:35:29;1.27;;;0.93;;
56343;SDS011;42245;42.058;24.700;2023-11-18T12:43:09;1.70;;;1.10;;
56343;SDS011;42245;42.058;24.700;2023-11-18T12:48:17;1.97;;;1.20;;
56343;SDS011;42245;42.058;24.700;2023-11-18T12:50:51;1.70;;;1.10;;
56343;SDS011;42245;42.058;24.700;2023-11-18T12:53:19;1.00;;;0.90;;
56343;SDS011;42245;42.058;24.700;2023-11-18T12:55:46;1.13;;;1.00;;
56343;SDS011;42245;42.058;24.700;2023-11-18T12:58:13;2.27;;;1.20;;
56343;SDS011;42245;42.058;24.700;2023-11-18T13:00:39;1.57;;;0.97;;
56343;SDS011;42245;42.058;24.700;2023-11-18T13:03:07;1.20;;;1.10;;
56343;SDS011;42245;42.058;24.700;2023-11-18T13:05:35;2.93;;;1.17;;
56343;SDS011;42245;42.058;24.700;2023-11-18T13:08:02;3.87;;;1.20;;
56343;SDS011;42245;42.058;24.700;2023-11-18T13:10:27;1.97;;;1.20;;
56343;SDS011;42245;42.058;24.700;2023-11-18T13:12:53;1.20;;;1.10;;
56343;SDS011;42245;42.058;24.700;2023-11-18T13:15:19;3.10;;;1.10;;
56343;SDS011;42245;42.058;24.700;2023-11-18T13:18:01;5.67;;;1.00;;
56343;SDS011;42245;42.058;24.700;2023-11-18T13:20:31;6.57;;;1.23;;
56343;SDS011;42245;42.058;24.700;2023-11-18T13:23:00;3.93;;;1.20;;
56343;SDS011;42245;42.058;24.700;2023-11-18T13:25:26;1.03;;;0.93;;
56343;SDS011;42245;42.058;24.700;2023-11-18T13:27:51;1.10;;;1.00;;
56343;SDS011;42245;42.058;24.700;2023-11-18T13:30:17;2.70;;;1.20;;
56343;SDS011;42245;42.058;24.700;2023-11-18T13:32:46;1.27;;;1.00;;
56343;SDS011;42245;42.058;24.700;2023-11-18T13:35:11;3.57;;;1.20;;
56343;SDS011;42245;42.058;24.700;2023-11-18T13:37:39;3.30;;;1.30;;
56343;SDS011;42245;42.058;24.700;2023-11-18T13:40:06;1.77;;;1.10;;
56343;SDS011;42245;42.058;24.700;2023-11-18T13:42:32;2.23;;;1.40;;
56343;SDS011;42245;42.058;24.700;2023-11-18T13:45:04;2.37;;;1.20;;
56343;SDS011;42245;42.058;24.700;2023-11-18T13:47:37;1.57;;;1.17;;
56343;SDS011;42245;42.058;24.700;2023-11-18T13:50:08;0.80;;;0.80;;
56343;SDS011;42245;42.058;24.700;2023-11-18T13:52:35;1.63;;;1.20;;
56343;SDS011;42245;42.058;24.700;2023-11-18T13:55:00;1.30;;;1.00;;
56343;SDS011;42245;42.058;24.700;2023-11-18T13:57:26;2.23;;;1.30;;
56343;SDS011;42245;42.058;24.700;2023-11-18T13:59:52;2.63;;;1.20;;
56343;SDS011;42245;42.058;24.700;2023-11-18T14:02:19;1.20;;;1.10;;
56343;SDS011;42245;42.058;24.700;2023-11-18T14:04:44;2.23;;;1.10;;
56343;SDS011;42245;42.058;24.700;2023-11-18T14:07:13;3.23;;;1.30;;
56343;SDS011;42245;42.058;24.700;2023-11-18T14:09:41;2.07;;;1.33;;
56343;SDS011;42245;42.058;24.700;2023-11-18T14:12:09;5.50;;;1.37;;
56343;SDS011;42245;42.058;24.700;2023-11-18T14:14:35;1.43;;;1.33;;
56343;SDS011;42245;42.058;24.700;2023-11-18T14:17:00;1.53;;;1.20;;
56343;SDS011;42245;42.058;24.700;2023-11-18T14:19:26;1.30;;;1.20;;
56343;SDS011;42245;42.058;24.700;2023-11-18T14:21:55;1.77;;;1.47;;
56343;SDS011;42245;42.058;24.700;2023-11-18T14:24:21;2.07;;;1.37;;
56343;SDS011;42245;42.058;24.700;2023-11-18T14:26:53;1.20;;;1.10;;
56343;SDS011;42245;42.058;24.700;2023-11-18T14:29:18;3.30;;;1.20;;
56343;SDS011;42245;42.058;24.700;2023-11-18T14:31:44;2.03;;;1.30;;
56343;SDS011;42245;42.058;24.700;2023-11-18T14:34:10;1.40;;;1.30;;
56343;SDS011;42245;42.058;24.700;2023-11-18T14:36:39;1.80;;;1.30;;
56343;SDS011;42245;42.058;24.700;2023-11-18T14:39:05;1.20;;;1.10;;
56343;SDS011;42245;42.058;24.700;2023-11-18T14:41:35;1.47;;;1.37;;
56343;SDS011;42245;42.058;24.700;2023-11-18T14:44:01;1.93;;;1.40;;
56343;SDS011;42245;42.058;24.700;2023-11-18T14:46:29;4.10;;;1.40;;
56343;SDS011;42245;42.058;24.700;2023-11-18T14:48:56;2.00;;;1.57;;
56343;SDS011;42245;42.058;24.700;2023-11-18T14:51:22;2.83;;;1.30;;
56343;SDS011;42245;42.058;24.700;2023-11-18T14:53:47;1.83;;;1.40;;
56343;SDS011;42245;42.058;24.700;2023-11-18T14:56:13;2.27;;;1.40;;
56343;SDS011;42245;42.058;24.700;2023-11-18T14:58:40;5.80;;;1.50;;
56343;SDS011;42245;42.058;24.700;2023-11-18T15:01:05;1.53;;;1.40;;
56343;SDS011;42245;42.058;24.700;2023-11-18T15:03:33;3.93;;;1.50;;
56343;SDS011;42245;42.058;24.700;2023-11-18T15:06:00;9.60;;;1.87;;
56343;SDS011;42245;42.058;24.700;2023-11-18T15:08:25;1.50;;;1.40;;